createdAt,value
2018-10-15T00:02:21.052Z,13.90
2018-10-15T00:04:48.548Z,14.00
2018-10-15T00:07:21.080Z,13.90
2018-10-15T00:09:49.129Z,13.90
2018-10-15T00:12:16.496Z,13.90
2018-10-15T00:14:43.900Z,13.90
2018-10-15T00:17:11.666Z,13.80
2018-10-15T00:19:39.710Z,13.80
2018-10-15T00:22:07.155Z,13.80
2018-10-15T00:24:34.539Z,13.80
2018-10-15T00:27:06.896Z,13.90
2018-10-15T00:29:34.290Z,13.90
2018-10-15T00:32:02.185Z,13.80
2018-10-15T00:34:29.625Z,13.80
2018-10-15T00:36:57.056Z,13.70
2018-10-15T00:39:24.528Z,13.70
2018-10-15T00:41:51.984Z,13.60
2018-10-15T00:44:19.478Z,13.60
2018-10-15T00:46:46.867Z,13.60
2018-10-15T00:49:14.227Z,13.50
2018-10-15T00:51:42.019Z,13.50
2018-10-15T00:54:09.419Z,13.50
2018-10-15T00:56:36.798Z,13.50
2018-10-15T00:59:04.755Z,13.40
2018-10-15T01:01:32.150Z,13.40
2018-10-15T01:03:59.556Z,13.40
2018-10-15T01:06:27.164Z,13.40
2018-10-15T01:08:54.620Z,13.40
2018-10-15T01:11:22.081Z,13.40
2018-10-15T01:13:49.536Z,13.40
2018-10-15T01:16:17.146Z,13.40
2018-10-15T01:18:44.517Z,13.30
2018-10-15T01:21:12.046Z,13.30
2018-10-15T01:23:39.432Z,13.40
2018-10-15T01:26:06.986Z,13.30
2018-10-15T01:28:34.488Z,13.30
2018-10-15T01:31:01.877Z,13.30
2018-10-15T01:33:29.263Z,13.30
2018-10-15T01:35:56.630Z,13.20
2018-10-15T01:38:24.006Z,13.20
2018-10-15T01:40:51.449Z,13.20
2018-10-15T01:43:18.915Z,13.20
2018-10-15T01:45:46.368Z,13.20
2018-10-15T01:48:13.826Z,13.20
2018-10-15T01:50:41.408Z,13.20
2018-10-15T01:53:08.770Z,13.20
2018-10-15T01:55:36.654Z,13.10
2018-10-15T01:58:04.476Z,13.10
2018-10-15T02:00:31.909Z,13.10
2018-10-15T02:02:59.309Z,13.10
2018-10-15T02:05:26.685Z,13.10
2018-10-15T02:07:54.023Z,13.00
2018-10-15T02:10:21.387Z,13.10
2018-10-15T02:12:48.731Z,13.00
2018-10-15T02:15:16.165Z,13.00
2018-10-15T02:17:43.606Z,13.00
2018-10-15T02:20:11.204Z,12.90
2018-10-15T02:22:38.795Z,12.90
2018-10-15T02:25:06.432Z,12.90
2018-10-15T02:27:33.792Z,12.90
2018-10-15T02:30:01.163Z,12.80
2018-10-15T02:32:28.520Z,12.80
2018-10-15T02:34:55.911Z,12.80
2018-10-15T02:37:23.400Z,12.70
2018-10-15T02:39:50.829Z,12.70
2018-10-15T02:42:18.196Z,12.70
2018-10-15T02:44:45.544Z,12.70
2018-10-15T02:47:12.904Z,12.70
2018-10-15T02:49:40.256Z,12.70
2018-10-15T02:52:08.611Z,12.60
2018-10-15T02:54:35.980Z,12.60
2018-10-15T02:57:03.350Z,12.60
2018-10-15T02:59:30.691Z,12.60
2018-10-15T03:01:58.059Z,12.50
2018-10-15T03:04:25.503Z,12.50
2018-10-15T03:06:52.986Z,12.50
2018-10-15T03:09:20.431Z,12.40
2018-10-15T03:11:47.887Z,12.40
2018-10-15T03:14:15.231Z,12.40
2018-10-15T03:16:42.625Z,12.40
2018-10-15T03:19:10.964Z,12.40
2018-10-15T03:21:38.334Z,12.40
2018-10-15T03:24:05.678Z,12.50
2018-10-15T03:26:33.520Z,12.50
2018-10-15T03:29:00.910Z,12.60
2018-10-15T03:31:28.683Z,12.70
2018-10-15T03:33:56.361Z,12.60
2018-10-15T03:36:23.764Z,12.60
2018-10-15T03:38:51.125Z,12.60
2018-10-15T03:41:18.480Z,12.60
2018-10-15T03:43:45.884Z,12.50
2018-10-15T03:46:13.236Z,12.50
2018-10-15T03:48:40.684Z,12.50
2018-10-15T03:51:08.033Z,12.60
2018-10-15T03:53:35.395Z,12.60
2018-10-15T03:56:02.836Z,12.70
2018-10-15T03:58:30.300Z,12.60
2018-10-15T04:00:58.081Z,12.60
2018-10-15T04:03:25.528Z,12.60
2018-10-15T04:05:52.885Z,12.50
2018-10-15T04:08:20.422Z,12.40
2018-10-15T04:10:47.788Z,12.40
2018-10-15T04:13:15.164Z,12.30
2018-10-15T04:15:42.508Z,12.30
2018-10-15T04:18:09.986Z,12.20
2018-10-15T04:20:38.991Z,12.20
2018-10-15T04:23:06.371Z,12.20
2018-10-15T04:25:33.763Z,12.20
2018-10-15T04:28:01.266Z,12.20
2018-10-15T04:30:28.684Z,12.20
2018-10-15T04:32:56.092Z,12.10
2018-10-15T04:35:23.492Z,12.10
2018-10-15T04:37:51.023Z,12.10
2018-10-15T04:40:18.562Z,12.10
2018-10-15T04:42:45.919Z,12.10
2018-10-15T04:45:13.902Z,12.10
2018-10-15T04:47:42.587Z,12.10
2018-10-15T04:50:09.995Z,12.10
2018-10-15T04:52:37.467Z,12.10
2018-10-15T04:55:05.487Z,12.10
2018-10-15T04:57:32.941Z,12.10
2018-10-15T05:00:00.324Z,12.10
2018-10-15T05:02:27.909Z,12.20
2018-10-15T05:07:29.682Z,12.20
2018-10-15T05:09:57.183Z,12.20
2018-10-15T05:12:24.729Z,12.20
2018-10-15T05:14:52.068Z,12.10
2018-10-15T05:17:19.558Z,12.10
2018-10-15T05:19:47.025Z,12.10
2018-10-15T05:22:14.428Z,12.10
2018-10-15T05:24:41.926Z,12.10
2018-10-15T05:27:09.705Z,12.00
2018-10-15T05:29:37.157Z,11.90
2018-10-15T05:32:04.980Z,11.90
2018-10-15T05:34:32.554Z,11.90
2018-10-15T05:37:00.027Z,11.90
2018-10-15T05:39:27.472Z,11.90
2018-10-15T05:41:54.961Z,11.90
2018-10-15T05:44:23.238Z,11.90
2018-10-15T05:46:50.741Z,11.90
2018-10-15T05:49:18.388Z,11.90
2018-10-15T05:51:45.932Z,11.90
2018-10-15T05:57:11.473Z,12.00
2018-10-15T05:59:38.920Z,12.00
2018-10-15T06:02:06.402Z,12.00
2018-10-15T06:04:33.915Z,12.10
2018-10-15T06:07:01.310Z,12.10
2018-10-15T06:09:29.362Z,12.20
2018-10-15T06:11:56.794Z,12.20
2018-10-15T06:14:24.301Z,12.20
2018-10-15T06:16:51.787Z,12.20
2018-10-15T06:19:19.172Z,12.30
2018-10-15T06:21:46.644Z,12.30
2018-10-15T06:24:14.088Z,12.30
2018-10-15T06:26:41.628Z,12.30
2018-10-15T06:29:09.213Z,12.40
2018-10-15T06:31:36.637Z,12.40
2018-10-15T06:34:04.338Z,12.50
2018-10-15T06:36:32.085Z,12.70
2018-10-15T06:41:33.432Z,12.80
2018-10-15T06:44:01.118Z,12.90
2018-10-15T06:46:28.668Z,12.90
2018-10-15T06:48:56.079Z,13.00
2018-10-15T06:51:23.556Z,13.10
2018-10-15T06:59:11.938Z,13.50
2018-10-15T07:01:39.557Z,13.70
2018-10-15T07:04:07.375Z,13.70
2018-10-15T07:06:34.736Z,13.80
2018-10-15T07:09:02.279Z,13.90
2018-10-15T07:11:29.595Z,14.00
2018-10-15T07:13:56.972Z,14.10
2018-10-15T07:16:24.558Z,14.20
2018-10-15T07:18:51.896Z,14.30
2018-10-15T07:21:19.361Z,14.40
2018-10-15T07:23:46.854Z,14.50
2018-10-15T07:26:14.361Z,14.60
2018-10-15T07:28:42.560Z,14.60
2018-10-15T07:31:09.939Z,14.70
2018-10-15T07:33:37.473Z,14.80
2018-10-15T07:36:05.223Z,14.80
2018-10-15T07:38:33.138Z,14.90
2018-10-15T07:41:00.641Z,15.00
2018-10-15T07:43:28.036Z,15.10
2018-10-15T07:45:55.529Z,15.20
2018-10-15T07:48:22.995Z,15.30
2018-10-15T07:50:50.429Z,15.30
2018-10-15T07:53:17.984Z,15.40
2018-10-15T07:55:45.343Z,15.50
2018-10-15T07:58:12.802Z,15.60
2018-10-15T08:00:40.189Z,15.70
2018-10-15T08:03:07.567Z,15.80
2018-10-15T08:05:35.270Z,16.00
2018-10-15T08:08:02.680Z,16.10
2018-10-15T08:10:30.058Z,16.10
2018-10-15T08:12:57.526Z,16.30
2018-10-15T08:15:25.031Z,16.40
2018-10-15T08:17:52.308Z,16.50
2018-10-15T08:20:20.546Z,16.60
2018-10-15T08:22:48.513Z,16.70
2018-10-15T08:25:15.912Z,16.90
2018-10-15T08:27:45.517Z,17.00
2018-10-15T08:30:14.685Z,17.10
2018-10-15T08:32:42.209Z,17.20
2018-10-15T08:35:10.707Z,17.20
2018-10-15T08:37:38.039Z,17.20
2018-10-15T08:40:07.311Z,17.40
2018-10-15T08:42:34.699Z,17.50
2018-10-15T08:45:02.105Z,17.60
2018-10-15T08:47:29.557Z,17.60
2018-10-15T08:49:56.953Z,17.70
2018-10-15T08:52:24.331Z,17.80
2018-10-15T08:54:51.765Z,17.90
2018-10-15T08:57:19.218Z,18.00
2018-10-15T08:59:46.738Z,18.00
2018-10-15T09:02:14.195Z,18.10
2018-10-15T09:04:41.670Z,18.10
2018-10-15T09:07:11.468Z,18.20
2018-10-15T09:09:38.942Z,18.20
2018-10-15T09:12:06.372Z,18.40
2018-10-15T09:14:33.853Z,18.50
2018-10-15T09:17:01.295Z,18.60
2018-10-15T09:19:28.692Z,18.60
2018-10-15T09:21:56.107Z,18.70
2018-10-15T09:24:23.828Z,18.70
2018-10-15T09:26:51.513Z,18.80
2018-10-15T09:29:18.886Z,18.70
2018-10-15T09:31:46.346Z,18.80
2018-10-15T09:34:13.741Z,18.90
2018-10-15T09:36:41.152Z,19.00
2018-10-15T09:39:09.843Z,19.00
2018-10-15T09:41:37.091Z,19.10
2018-10-15T09:44:06.433Z,19.10
2018-10-15T09:46:33.804Z,19.30
2018-10-15T09:49:01.340Z,19.30
2018-10-15T09:51:28.753Z,19.30
2018-10-15T09:53:56.176Z,19.30
2018-10-15T09:56:23.614Z,19.30
2018-10-15T09:58:51.953Z,19.20
2018-10-15T10:01:25.076Z,19.20
2018-10-15T10:03:52.453Z,19.30
2018-10-15T10:06:21.304Z,19.40
2018-10-15T10:08:48.726Z,19.60
2018-10-15T10:11:16.100Z,19.80
2018-10-15T10:13:47.379Z,19.90
2018-10-15T10:16:14.812Z,20.00
2018-10-15T10:18:42.298Z,20.00
2018-10-15T10:21:09.748Z,20.00
2018-10-15T10:23:37.136Z,20.10
2018-10-15T10:26:05.069Z,20.10
2018-10-15T10:28:32.603Z,20.10
2018-10-15T10:31:00.189Z,20.10
2018-10-15T10:33:27.659Z,20.20
2018-10-15T10:36:02.685Z,20.30
2018-10-15T10:38:41.184Z,20.40
2018-10-15T10:41:10.076Z,20.40
2018-10-15T10:43:37.827Z,20.30
2018-10-15T10:46:05.409Z,20.30
2018-10-15T10:48:32.945Z,20.20
2018-10-15T10:51:00.459Z,20.20
2018-10-15T10:56:06.776Z,20.50
2018-10-15T10:58:34.446Z,20.80
2018-10-15T11:01:01.998Z,21.00
2018-10-15T11:03:29.373Z,21.20
2018-10-15T11:05:57.120Z,21.30
2018-10-15T11:08:24.693Z,21.30
2018-10-15T11:10:52.037Z,21.30
2018-10-15T11:13:19.519Z,21.40
2018-10-15T11:15:47.740Z,21.50
2018-10-15T11:18:15.254Z,21.60
2018-10-15T11:20:42.695Z,21.70
2018-10-15T11:23:10.529Z,21.80
2018-10-15T11:25:38.013Z,21.90
2018-10-15T11:28:05.511Z,22.00
2018-10-15T11:30:33.003Z,22.00
2018-10-15T11:33:00.570Z,22.00
2018-10-15T11:35:28.456Z,21.90
2018-10-15T11:37:55.900Z,21.90
2018-10-15T11:40:29.397Z,21.90
2018-10-15T11:42:56.881Z,22.00
2018-10-15T11:45:25.051Z,22.00
2018-10-15T11:47:52.576Z,22.10
2018-10-15T11:50:20.078Z,22.10
2018-10-15T11:52:48.180Z,22.10
2018-10-15T11:55:15.625Z,22.10
2018-10-15T11:57:43.035Z,22.20
2018-10-15T12:00:13.719Z,22.30
2018-10-15T12:02:41.943Z,22.50
2018-10-15T12:05:12.959Z,22.60
2018-10-15T12:07:40.415Z,22.70
2018-10-15T12:10:08.988Z,22.70
2018-10-15T12:12:36.576Z,22.70
2018-10-15T12:15:04.658Z,22.80
2018-10-15T12:17:32.234Z,22.90
2018-10-15T12:19:59.788Z,22.90
2018-10-15T12:22:27.213Z,23.00
2018-10-15T12:24:54.659Z,23.00
2018-10-15T12:27:22.122Z,22.80
2018-10-15T12:29:50.050Z,22.70
2018-10-15T12:32:17.497Z,22.30
2018-10-15T12:34:45.101Z,22.00
2018-10-15T12:37:12.894Z,21.80
2018-10-15T12:39:40.402Z,21.70
2018-10-15T12:42:07.891Z,21.60
2018-10-15T12:44:35.421Z,21.60
2018-10-15T12:47:03.219Z,21.70
2018-10-15T12:49:30.690Z,21.80
2018-10-15T12:51:58.196Z,21.90
2018-10-15T12:54:25.806Z,21.90
2018-10-15T12:56:53.509Z,22.00
2018-10-15T12:59:21.066Z,21.90
2018-10-15T13:01:48.558Z,21.90
2018-10-15T13:04:16.026Z,21.90
2018-10-15T13:06:43.523Z,21.70
2018-10-15T13:09:11.152Z,21.70
2018-10-15T13:11:39.413Z,21.70
2018-10-15T13:14:07.341Z,21.90
2018-10-15T13:16:34.773Z,22.00
2018-10-15T13:19:02.298Z,22.10
2018-10-15T13:21:30.025Z,22.20
2018-10-15T13:23:57.421Z,22.30
2018-10-15T13:26:25.002Z,22.30
2018-10-15T13:28:52.489Z,22.20
2018-10-15T13:31:19.909Z,22.10
2018-10-15T13:33:47.341Z,22.00
2018-10-15T13:36:14.784Z,22.00
2018-10-15T13:38:42.384Z,21.90
2018-10-15T13:41:10.428Z,21.80
2018-10-15T13:43:37.891Z,21.80
2018-10-15T13:46:05.682Z,21.80
2018-10-15T13:48:33.060Z,21.80
2018-10-15T13:51:00.553Z,21.70
2018-10-15T13:53:28.148Z,21.60
2018-10-15T13:55:55.586Z,21.40
2018-10-15T13:58:23.074Z,21.40
2018-10-15T14:00:50.535Z,21.30
2018-10-15T14:03:18.239Z,21.20
2018-10-15T14:05:52.404Z,21.00
2018-10-15T14:08:20.309Z,20.90
2018-10-15T14:10:47.736Z,20.80
2018-10-15T14:13:15.260Z,20.80
2018-10-15T14:15:42.678Z,20.80
2018-10-15T14:18:10.734Z,20.70
2018-10-15T14:20:38.121Z,20.70
2018-10-15T14:23:05.554Z,20.60
2018-10-15T14:25:33.023Z,20.60
2018-10-15T14:28:00.436Z,20.50
2018-10-15T14:30:27.908Z,20.40
2018-10-15T14:32:55.352Z,20.40
2018-10-15T14:35:23.403Z,20.40
2018-10-15T14:37:51.203Z,20.40
2018-10-15T14:40:20.294Z,20.40
2018-10-15T14:42:47.707Z,20.40
2018-10-15T14:45:16.993Z,20.40
2018-10-15T14:47:44.524Z,20.40
2018-10-15T14:50:14.028Z,20.30
2018-10-15T14:52:45.062Z,20.40
2018-10-15T14:55:12.599Z,20.50
2018-10-15T14:57:40.279Z,20.50
2018-10-15T15:00:09.298Z,20.50
2018-10-15T15:02:39.818Z,20.50
2018-10-15T15:05:07.880Z,20.40
2018-10-15T15:07:35.340Z,20.40
2018-10-15T15:10:08.692Z,20.40
2018-10-15T15:12:41.726Z,20.30
2018-10-15T15:15:09.843Z,20.20
2018-10-15T15:17:37.482Z,20.20
2018-10-15T15:20:04.902Z,20.10
2018-10-15T15:22:32.316Z,20.10
2018-10-15T15:24:59.782Z,20.00
2018-10-15T15:27:27.215Z,19.80
2018-10-15T15:29:55.365Z,19.70
2018-10-15T15:32:22.998Z,19.70
2018-10-15T15:34:50.572Z,19.60
2018-10-15T15:37:18.679Z,19.50
2018-10-15T15:39:46.862Z,19.40
2018-10-15T15:42:14.434Z,19.30
2018-10-15T15:44:42.309Z,19.30
2018-10-15T15:47:09.929Z,19.20
2018-10-15T15:49:37.650Z,19.10
2018-10-15T15:52:05.343Z,19.00
2018-10-15T15:54:33.445Z,19.00
2018-10-15T15:57:02.313Z,18.80
2018-10-15T15:59:29.738Z,18.70
2018-10-15T16:01:57.125Z,18.70
2018-10-15T16:04:24.836Z,18.60
2018-10-15T16:06:52.233Z,18.40
2018-10-15T16:09:25.548Z,18.30
2018-10-15T16:11:53.863Z,18.30
2018-10-15T16:14:22.683Z,18.10
2018-10-15T16:16:52.293Z,18.00
2018-10-15T16:19:20.094Z,17.90
2018-10-15T16:21:47.658Z,17.80
2018-10-15T16:24:15.545Z,17.70
2018-10-15T16:26:43.611Z,17.60
2018-10-15T16:29:11.227Z,17.50
2018-10-15T16:31:38.994Z,17.40
2018-10-15T16:34:06.845Z,17.40
2018-10-15T16:36:34.747Z,17.30
2018-10-15T16:39:02.159Z,17.20
2018-10-15T16:41:29.869Z,17.20
2018-10-15T16:43:57.605Z,17.10
2018-10-15T16:46:25.336Z,17.10
2018-10-15T16:48:53.536Z,17.10
2018-10-15T16:51:21.051Z,17.10
2018-10-15T16:53:48.468Z,17.10
2018-10-15T16:56:15.924Z,17.10
2018-10-15T16:58:43.400Z,17.10
2018-10-15T17:01:10.944Z,17.00
2018-10-15T17:03:38.324Z,17.00
2018-10-15T17:06:05.898Z,16.90
2018-10-15T17:08:33.376Z,16.90
2018-10-15T17:11:01.028Z,16.80
2018-10-15T17:13:28.587Z,16.80
2018-10-15T17:15:56.183Z,16.80
2018-10-15T17:18:23.784Z,16.70
2018-10-15T17:20:51.192Z,16.60
2018-10-15T17:23:18.544Z,16.60
2018-10-15T17:25:45.964Z,16.50
2018-10-15T17:28:13.485Z,16.50
2018-10-15T17:30:40.901Z,16.50
2018-10-15T17:33:08.361Z,16.50
2018-10-15T17:35:35.788Z,16.50
2018-10-15T17:38:03.307Z,16.40
2018-10-15T17:40:30.725Z,16.40
2018-10-15T17:42:58.166Z,16.30
2018-10-15T17:45:25.633Z,16.20
2018-10-15T17:47:53.088Z,16.10
2018-10-15T17:50:20.548Z,16.00
2018-10-15T17:52:48.096Z,16.00
2018-10-15T17:55:16.471Z,15.90
2018-10-15T17:57:45.187Z,15.80
2018-10-15T18:00:17.704Z,15.80
2018-10-15T18:02:45.140Z,15.70
2018-10-15T18:05:13.072Z,15.70
2018-10-15T18:07:40.676Z,15.60
2018-10-15T18:10:08.025Z,15.60
2018-10-15T18:12:41.235Z,15.50
2018-10-15T18:15:09.688Z,15.50
2018-10-15T18:17:37.152Z,15.50
2018-10-15T18:20:05.108Z,15.50
2018-10-15T18:22:32.473Z,15.50
2018-10-15T18:24:59.884Z,15.50
2018-10-15T18:27:27.256Z,15.60
2018-10-15T18:29:54.648Z,15.50
2018-10-15T18:32:22.315Z,15.60
2018-10-15T18:34:49.992Z,15.60
2018-10-15T18:37:17.620Z,15.60
2018-10-15T18:39:45.104Z,15.60
2018-10-15T18:42:13.017Z,15.60
2018-10-15T18:44:40.490Z,15.60
2018-10-15T18:47:07.995Z,15.60
2018-10-15T18:49:35.339Z,15.60
2018-10-15T18:52:03.355Z,15.50
2018-10-15T18:54:30.843Z,15.40
2018-10-15T18:56:58.380Z,15.40
2018-10-15T18:59:26.111Z,15.30
2018-10-15T19:01:53.809Z,15.30
2018-10-15T19:04:21.367Z,15.20
2018-10-15T19:06:48.887Z,15.20
2018-10-15T19:09:17.225Z,15.20
2018-10-15T19:11:44.669Z,15.20
2018-10-15T19:14:12.174Z,15.20
2018-10-15T19:16:39.573Z,15.20
2018-10-15T19:19:08.029Z,15.20
2018-10-15T19:21:35.440Z,15.10
2018-10-15T19:24:03.162Z,15.10
2018-10-15T19:26:30.517Z,15.00
2018-10-15T19:28:57.896Z,15.00
2018-10-15T19:31:25.440Z,14.90
2018-10-15T19:33:52.895Z,14.90
2018-10-15T19:36:20.407Z,14.80
2018-10-15T19:38:47.884Z,14.80
2018-10-15T19:41:15.323Z,14.80
2018-10-15T19:43:42.751Z,14.80
2018-10-15T19:46:10.196Z,14.80
2018-10-15T19:48:37.831Z,14.80
2018-10-15T19:51:06.001Z,14.70
2018-10-15T19:53:33.418Z,14.70
2018-10-15T19:56:00.861Z,14.70
2018-10-15T19:58:28.436Z,14.70
2018-10-15T20:00:55.741Z,14.70
2018-10-15T20:03:23.215Z,14.70
2018-10-15T20:05:50.569Z,14.60
2018-10-15T20:08:18.054Z,14.60
2018-10-15T20:10:45.475Z,14.60
2018-10-15T20:13:12.848Z,14.60
2018-10-15T20:15:40.187Z,14.60
2018-10-15T20:18:07.564Z,14.60
2018-10-15T20:20:34.936Z,14.50
2018-10-15T20:23:02.817Z,14.50
2018-10-15T20:25:30.448Z,14.50
2018-10-15T20:27:57.905Z,14.50
2018-10-15T20:30:25.361Z,14.40
2018-10-15T20:32:52.736Z,14.40
2018-10-15T20:35:20.180Z,14.40
2018-10-15T20:37:47.526Z,14.40
2018-10-15T20:40:15.402Z,14.40
2018-10-15T20:42:43.735Z,14.30
2018-10-15T20:45:11.164Z,14.30
2018-10-15T20:47:39.131Z,14.30
2018-10-15T20:50:07.116Z,14.30
2018-10-15T20:52:34.620Z,14.20
2018-10-15T20:55:02.535Z,14.20
2018-10-15T20:57:30.025Z,14.20
2018-10-15T20:59:57.340Z,14.10
2018-10-15T21:02:24.788Z,14.10
2018-10-15T21:04:52.745Z,14.10
2018-10-15T21:07:21.129Z,14.10
2018-10-15T21:09:48.605Z,14.10
2018-10-15T21:12:15.971Z,14.10
2018-10-15T21:14:43.438Z,14.00
2018-10-15T21:17:10.974Z,14.00
2018-10-15T21:19:38.548Z,14.00
2018-10-15T21:22:06.026Z,14.00
2018-10-15T21:24:33.405Z,14.00
2018-10-15T21:27:00.908Z,14.00
2018-10-15T21:29:28.493Z,14.00
2018-10-15T21:31:56.175Z,14.10
2018-10-15T21:34:23.624Z,14.10
2018-10-15T21:36:51.104Z,14.10
2018-10-15T21:39:18.626Z,14.10
2018-10-15T21:41:46.083Z,14.00
2018-10-15T21:44:13.534Z,14.00
2018-10-15T21:46:41.132Z,14.00
2018-10-15T21:49:08.635Z,13.90
2018-10-15T21:51:36.102Z,13.90
2018-10-15T21:56:53.459Z,13.90
2018-10-15T21:59:20.835Z,13.80
2018-10-15T22:01:48.200Z,13.80
2018-10-15T22:04:15.608Z,13.70
2018-10-15T22:06:43.011Z,13.70
2018-10-15T22:09:11.168Z,13.70
2018-10-15T22:11:38.867Z,13.60
2018-10-15T22:14:06.603Z,13.70
2018-10-15T22:16:34.061Z,13.60
2018-10-15T22:19:02.074Z,13.50
2018-10-15T22:21:29.546Z,13.50
2018-10-15T22:23:57.028Z,13.50
2018-10-15T22:26:24.489Z,13.50
2018-10-15T22:28:51.871Z,13.50
2018-10-15T22:31:19.322Z,13.50
2018-10-15T22:33:46.789Z,13.50
2018-10-15T22:36:14.163Z,13.40
2018-10-15T22:38:41.696Z,13.40
2018-10-15T22:41:09.250Z,13.30
2018-10-15T22:43:37.121Z,13.30
2018-10-15T22:46:04.766Z,13.30
2018-10-15T22:48:32.508Z,13.30
2018-10-15T22:50:59.983Z,13.20
2018-10-15T22:53:27.444Z,13.20
2018-10-15T22:55:54.823Z,13.10
2018-10-15T22:58:22.215Z,13.10
2018-10-15T23:00:49.700Z,13.10
2018-10-15T23:03:17.139Z,13.00
2018-10-15T23:05:45.166Z,13.00
2018-10-15T23:08:12.572Z,13.00
2018-10-15T23:10:39.952Z,13.00
2018-10-15T23:13:07.395Z,13.00
2018-10-15T23:15:34.868Z,13.00
2018-10-15T23:18:02.305Z,13.00
2018-10-15T23:20:29.914Z,13.00
2018-10-15T23:22:57.276Z,13.00
2018-10-15T23:25:24.699Z,12.90
2018-10-15T23:27:52.167Z,12.90
2018-10-15T23:30:19.555Z,12.90
2018-10-15T23:32:46.972Z,12.80
2018-10-15T23:35:14.740Z,12.90
2018-10-15T23:37:42.514Z,12.80
2018-10-15T23:40:12.135Z,12.80
2018-10-15T23:42:39.784Z,12.80
2018-10-15T23:45:08.178Z,12.70
2018-10-15T23:47:35.728Z,12.70
2018-10-15T23:50:03.110Z,12.70
2018-10-15T23:52:30.504Z,12.60
2018-10-15T23:54:58.104Z,12.60
2018-10-15T23:57:25.548Z,12.60
2018-10-15T23:59:52.940Z,12.50
